sensor_id;sensor_type;location;lat;lon;timestamp;pressure;altitude;pressure_sealevel;temperature;humidity
48792;BME280;34587;48.816;9.420;2023-05-09T04:16:25;98957.22;;;11.85;100.00
48792;BME280;34587;48.816;9.420;2023-05-09T04:18:50;98958.13;;;11.81;100.00
48792;BME280;34587;48.816;9.420;2023-05-09T04:21:15;98946.03;;;11.80;100.00
48792;BME280;34587;48.816;9.420;2023-05-09T04:23:41;98948.63;;;11.80;100.00
48792;BME280;34587;48.816;9.420;2023-05-09T04:26:08;98952.88;;;11.84;100.00
48792;BME280;34587;48.816;9.420;2023-05-09T04:28:33;98945.84;;;11.89;100.00
48792;BME280;34587;48.816;9.420;2023-05-09T04:30:59;98945.03;;;11.87;100.00
48792;BME280;34587;48.816;9.420;2023-05-09T04:33:24;98950.03;;;11.96;100.00
48792;BME280;34587;48.816;9.420;2023-05-09T04:35:49;98954.28;;;12.00;100.00
48792;BME280;34587;48.816;9.420;2023-05-09T04:38:15;98954.38;;;11.96;100.00
48792;BME280;34587;48.816;9.420;2023-05-09T04:40:41;98950.00;;;11.99;100.00
48792;BME280;34587;48.816;9.420;2023-05-09T04:43:06;98950.00;;;11.99;100.00
48792;BME280;34587;48.816;9.420;2023-05-09T04:45:32;98958.41;;;12.11;100.00
48792;BME280;34587;48.816;9.420;2023-05-09T04:47:57;98957.25;;;12.22;100.00
48792;BME280;34587;48.816;9.420;2023-05-09T04:50:22;98953.66;;;12.29;100.00
48792;BME280;34587;48.816;9.420;2023-05-09T04:52:48;98957.56;;;12.47;100.00
48792;BME280;34587;48.816;9.420;2023-05-09T04:55:14;98958.09;;;12.63;100.00
48792;BME280;34587;48.816;9.420;2023-05-09T04:57:39;98955.41;;;12.66;100.00
48792;BME280;34587;48.816;9.420;2023-05-09T05:00:05;98950.19;;;12.68;100.00
48792;BME280;34587;48.816;9.420;2023-05-09T05:02:31;98952.69;;;12.72;100.00
48792;BME280;34587;48.816;9.420;2023-05-09T05:04:57;98950.72;;;12.80;100.00
48792;BME280;34587;48.816;9.420;2023-05-09T05:07:22;98954.84;;;12.89;100.00
48792;BME280;34587;48.816;9.420;2023-05-09T05:09:47;98945.09;;;12.99;100.00
48792;BME280;34587;48.816;9.420;2023-05-09T05:12:13;98950.91;;;13.08;99.87
48792;BME280;34587;48.816;9.420;2023-05-09T05:14:38;98955.75;;;13.24;99.15
48792;BME280;34587;48.816;9.420;2023-05-09T05:17:03;98942.59;;;13.30;98.29
48792;BME280;34587;48.816;9.420;2023-05-09T05:19:30;98953.63;;;13.38;97.57
48792;BME280;34587;48.816;9.420;2023-05-09T05:21:55;98951.88;;;13.40;97.97
48792;BME280;34587;48.816;9.420;2023-05-09T05:24:21;98948.13;;;13.50;96.65
48792;BME280;34587;48.816;9.420;2023-05-09T05:26:46;98939.22;;;13.57;96.32
48792;BME280;34587;48.816;9.420;2023-05-09T05:29:11;98942.22;;;13.75;95.93
48792;BME280;34587;48.816;9.420;2023-05-09T05:31:37;98938.47;;;13.85;95.25
48792;BME280;34587;48.816;9.420;2023-05-09T05:34:02;98933.06;;;13.91;93.69
48792;BME280;34587;48.816;9.420;2023-05-09T05:36:27;98928.75;;;13.90;93.26
48792;BME280;34587;48.816;9.420;2023-05-09T05:38:53;98940.69;;;13.97;94.07
48792;BME280;34587;48.816;9.420;2023-05-09T05:41:18;98930.66;;;14.14;92.86
48792;BME280;34587;48.816;9.420;2023-05-09T05:43:43;98929.09;;;14.37;91.56
48792;BME280;34587;48.816;9.420;2023-05-09T05:46:09;98924.19;;;14.56;91.15
48792;BME280;34587;48.816;9.420;2023-05-09T05:48:34;98919.53;;;14.65;90.43
48792;BME280;34587;48.816;9.420;2023-05-09T05:51:00;98917.13;;;14.59;89.66
48792;BME280;34587;48.816;9.420;2023-05-09T05:53:25;98915.13;;;14.68;89.19
48792;BME280;34587;48.816;9.420;2023-05-09T05:55:50;98916.22;;;15.13;88.27
48792;BME280;34587;48.816;9.420;2023-05-09T05:58:15;98902.69;;;15.51;84.99
48792;BME280;34587;48.816;9.420;2023-05-09T06:00:41;98902.91;;;15.70;84.53
48792;BME280;34587;48.816;9.420;2023-05-09T06:03:06;98894.41;;;15.64;83.61
48792;BME280;34587;48.816;9.420;2023-05-09T06:05:32;98892.91;;;16.04;82.88
48792;BME280;34587;48.816;9.420;2023-05-09T06:07:58;98894.84;;;15.99;81.52
48792;BME280;34587;48.816;9.420;2023-05-09T06:10:23;98893.41;;;16.14;81.20
48792;BME280;34587;48.816;9.420;2023-05-09T06:12:48;98888.31;;;16.33;80.92
48792;BME280;34587;48.816;9.420;2023-05-09T06:15:13;98889.25;;;16.08;79.22
48792;BME280;34587;48.816;9.420;2023-05-09T06:17:39;98879.66;;;16.09;79.75
48792;BME280;34587;48.816;9.420;2023-05-09T06:20:05;98884.84;;;16.10;79.75
48792;BME280;34587;48.816;9.420;2023-05-09T06:22:30;98877.44;;;16.22;77.97
48792;BME280;34587;48.816;9.420;2023-05-09T06:24:55;98881.00;;;16.19;77.47
48792;BME280;34587;48.816;9.420;2023-05-09T06:27:21;98883.28;;;15.83;78.85
48792;BME280;34587;48.816;9.420;2023-05-09T06:29:46;98872.63;;;16.11;78.53
48792;BME280;34587;48.816;9.420;2023-05-09T06:32:11;98875.63;;;16.00;77.25
48792;BME280;34587;48.816;9.420;2023-05-09T06:34:37;98878.34;;;16.21;76.91
48792;BME280;34587;48.816;9.420;2023-05-09T06:37:02;98878.09;;;16.27;75.69
48792;BME280;34587;48.816;9.420;2023-05-09T06:39:27;98873.75;;;16.69;75.02
48792;BME280;34587;48.816;9.420;2023-05-09T06:41:53;98868.44;;;17.13;73.17
48792;BME280;34587;48.816;9.420;2023-05-09T06:44:18;98851.81;;;17.14;71.57
48792;BME280;34587;48.816;9.420;2023-05-09T06:46:43;98858.66;;;17.37;71.07
48792;BME280;34587;48.816;9.420;2023-05-09T06:49:08;98861.41;;;17.73;69.41
48792;BME280;34587;48.816;9.420;2023-05-09T06:51:35;98849.91;;;18.33;67.65
48792;BME280;34587;48.816;9.420;2023-05-09T06:54:00;98849.69;;;19.24;63.82
48792;BME280;34587;48.816;9.420;2023-05-09T06:56:25;98843.00;;;19.51;62.18
48792;BME280;34587;48.816;9.420;2023-05-09T06:58:51;98838.28;;;21.42;55.31
48792;BME280;34587;48.816;9.420;2023-05-09T07:01:16;98837.34;;;21.86;52.61
48792;BME280;34587;48.816;9.420;2023-05-09T07:03:42;98836.31;;;21.74;52.60
48792;BME280;34587;48.816;9.420;2023-05-09T07:06:08;98837.66;;;21.52;52.83
48792;BME280;34587;48.816;9.420;2023-05-09T07:08:33;98829.16;;;20.13;57.07
48792;BME280;34587;48.816;9.420;2023-05-09T07:10:58;98835.53;;;20.70;54.56
48792;BME280;34587;48.816;9.420;2023-05-09T07:13:24;98827.78;;;22.78;50.13
48792;BME280;34587;48.816;9.420;2023-05-09T07:15:49;98815.81;;;24.95;45.43
48792;BME280;34587;48.816;9.420;2023-05-09T07:18:14;98817.00;;;25.82;42.86
48792;BME280;34587;48.816;9.420;2023-05-09T07:20:40;98817.50;;;26.95;39.59
48792;BME280;34587;48.816;9.420;2023-05-09T07:23:05;98827.72;;;24.06;43.35
48792;BME280;34587;48.816;9.420;2023-05-09T07:25:31;98824.56;;;23.39;47.14
48792;BME280;34587;48.816;9.420;2023-05-09T07:27:56;98828.97;;;21.36;50.60
48792;BME280;34587;48.816;9.420;2023-05-09T07:30:22;98826.28;;;20.17;53.92
48792;BME280;34587;48.816;9.420;2023-05-09T07:32:47;98823.03;;;19.81;55.51
48792;BME280;34587;48.816;9.420;2023-05-09T07:35:12;98818.38;;;19.37;57.43
48792;BME280;34587;48.816;9.420;2023-05-09T07:37:37;98814.28;;;19.15;58.16
48792;BME280;34587;48.816;9.420;2023-05-09T07:40:03;98801.75;;;18.51;59.87
48792;BME280;34587;48.816;9.420;2023-05-09T07:42:30;98795.84;;;19.48;58.39
48792;BME280;34587;48.816;9.420;2023-05-09T07:44:56;98774.13;;;22.91;49.56
48792;BME280;34587;48.816;9.420;2023-05-09T07:47:23;98777.97;;;25.39;44.04
48792;BME280;34587;48.816;9.420;2023-05-09T07:49:48;98773.31;;;24.02;44.97
48792;BME280;34587;48.816;9.420;2023-05-09T07:52:14;98769.72;;;25.87;41.64
48792;BME280;34587;48.816;9.420;2023-05-09T07:54:41;98775.66;;;25.34;41.82
48792;BME280;34587;48.816;9.420;2023-05-09T07:57:06;98761.00;;;26.28;39.64
48792;BME280;34587;48.816;9.420;2023-05-09T07:59:31;98762.09;;;28.11;36.77
48792;BME280;34587;48.816;9.420;2023-05-09T08:01:57;98751.97;;;29.29;34.49
48792;BME280;34587;48.816;9.420;2023-05-09T08:04:22;98751.69;;;28.27;35.87
48792;BME280;34587;48.816;9.420;2023-05-09T08:06:47;98759.56;;;27.19;35.68
48792;BME280;34587;48.816;9.420;2023-05-09T08:09:13;98737.63;;;27.36;36.84
48792;BME280;34587;48.816;9.420;2023-05-09T08:11:38;98731.22;;;27.49;35.39
48792;BME280;34587;48.816;9.420;2023-05-09T08:14:04;98740.16;;;25.69;38.55
48792;BME280;34587;48.816;9.420;2023-05-09T08:16:29;98727.88;;;27.16;37.08
48792;BME280;34587;48.816;9.420;2023-05-09T08:18:54;98722.28;;;26.88;37.69
48792;BME280;34587;48.816;9.420;2023-05-09T08:21:20;98722.59;;;27.66;35.69
48792;BME280;34587;48.816;9.420;2023-05-09T08:23:46;98721.78;;;27.75;36.16
48792;BME280;34587;48.816;9.420;2023-05-09T08:26:11;98724.84;;;27.00;36.08
48792;BME280;34587;48.816;9.420;2023-05-09T08:28:36;98726.88;;;25.69;39.05
48792;BME280;34587;48.816;9.420;2023-05-09T08:31:02;98715.31;;;26.13;38.31
48792;BME280;34587;48.816;9.420;2023-05-09T08:33:27;98715.94;;;26.59;36.42
48792;BME280;34587;48.816;9.420;2023-05-09T08:35:53;98709.00;;;25.94;37.77
48792;BME280;34587;48.816;9.420;2023-05-09T08:38:19;98704.22;;;26.61;35.87
48792;BME280;34587;48.816;9.420;2023-05-09T08:40:44;98703.03;;;27.36;33.25
48792;BME280;34587;48.816;9.420;2023-05-09T08:43:11;98694.09;;;27.37;34.10
48792;BME280;34587;48.816;9.420;2023-05-09T08:45:50;98694.47;;;27.02;33.37
48792;BME280;34587;48.816;9.420;2023-05-09T08:48:18;98682.97;;;29.62;30.63
48792;BME280;34587;48.816;9.420;2023-05-09T08:50:45;98682.28;;;28.48;31.48
48792;BME280;34587;48.816;9.420;2023-05-09T08:53:11;98676.56;;;27.35;32.65
48792;BME280;34587;48.816;9.420;2023-05-09T08:55:37;98668.53;;;29.27;31.12
48792;BME280;34587;48.816;9.420;2023-05-09T08:58:03;98669.66;;;26.61;34.40
48792;BME280;34587;48.816;9.420;2023-05-09T09:00:28;98662.03;;;26.47;35.50
48792;BME280;34587;48.816;9.420;2023-05-09T09:02:56;98653.91;;;27.70;33.76
48792;BME280;34587;48.816;9.420;2023-05-09T09:05:22;98662.28;;;26.65;34.42
48792;BME280;34587;48.816;9.420;2023-05-09T09:07:48;98658.69;;;27.66;34.19
48792;BME280;34587;48.816;9.420;2023-05-09T09:10:15;98659.22;;;28.57;30.99
48792;BME280;34587;48.816;9.420;2023-05-09T09:12:41;98664.72;;;29.02;30.39
48792;BME280;34587;48.816;9.420;2023-05-09T09:15:09;98664.72;;;27.68;31.07
48792;BME280;34587;48.816;9.420;2023-05-09T09:17:39;98665.03;;;29.44;29.36
48792;BME280;34587;48.816;9.420;2023-05-09T09:20:09;98649.44;;;30.13;28.66
48792;BME280;34587;48.816;9.420;2023-05-09T09:22:36;98653.50;;;30.25;28.55
48792;BME280;34587;48.816;9.420;2023-05-09T09:25:05;98651.69;;;29.72;28.37
48792;BME280;34587;48.816;9.420;2023-05-09T09:27:30;98646.41;;;29.17;30.24
48792;BME280;34587;48.816;9.420;2023-05-09T09:30:05;98640.94;;;30.17;28.73
48792;BME280;34587;48.816;9.420;2023-05-09T09:32:34;98648.41;;;29.05;29.67
48792;BME280;34587;48.816;9.420;2023-05-09T09:35:10;98633.06;;;30.16;28.83
48792;BME280;34587;48.816;9.420;2023-05-09T09:37:37;98632.69;;;32.06;28.16
48792;BME280;34587;48.816;9.420;2023-05-09T09:40:08;98631.16;;;32.53;26.85
48792;BME280;34587;48.816;9.420;2023-05-09T09:42:45;98619.50;;;34.09;24.37
48792;BME280;34587;48.816;9.420;2023-05-09T09:45:12;98622.53;;;33.21;25.06
48792;BME280;34587;48.816;9.420;2023-05-09T09:47:39;98616.09;;;31.86;26.82
48792;BME280;34587;48.816;9.420;2023-05-09T09:50:18;98614.78;;;30.89;27.74
48792;BME280;34587;48.816;9.420;2023-05-09T09:52:54;98607.56;;;32.40;26.61
48792;BME280;34587;48.816;9.420;2023-05-09T09:55:21;98600.72;;;32.77;26.71
48792;BME280;34587;48.816;9.420;2023-05-09T09:57:46;98608.63;;;32.70;25.39
48792;BME280;34587;48.816;9.420;2023-05-09T10:00:14;98604.63;;;32.66;25.84
48792;BME280;34587;48.816;9.420;2023-05-09T10:02:55;98585.06;;;33.82;25.24
48792;BME280;34587;48.816;9.420;2023-05-09T10:05:29;98585.34;;;33.10;25.67
48792;BME280;34587;48.816;9.420;2023-05-09T10:08:03;98573.69;;;30.64;28.83
48792;BME280;34587;48.816;9.420;2023-05-09T10:10:31;98574.50;;;28.51;32.08
48792;BME280;34587;48.816;9.420;2023-05-09T10:12:58;98586.84;;;26.35;36.02
48792;BME280;34587;48.816;9.420;2023-05-09T10:15:24;98573.94;;;25.57;37.18
48792;BME280;34587;48.816;9.420;2023-05-09T10:17:53;98556.19;;;26.62;35.92
48792;BME280;34587;48.816;9.420;2023-05-09T10:20:20;98558.56;;;29.77;31.47
48792;BME280;34587;48.816;9.420;2023-05-09T10:22:45;98553.03;;;27.96;33.45
48792;BME280;34587;48.816;9.420;2023-05-09T10:25:18;98555.09;;;26.64;35.27
48792;BME280;34587;48.816;9.420;2023-05-09T10:27:46;98548.00;;;25.28;37.98
48792;BME280;34587;48.816;9.420;2023-05-09T10:30:15;98541.53;;;26.37;36.86
48792;BME280;34587;48.816;9.420;2023-05-09T10:32:52;98551.00;;;24.69;39.39
48792;BME280;34587;48.816;9.420;2023-05-09T10:35:19;98539.91;;;23.38;41.91
48792;BME280;34587;48.816;9.420;2023-05-09T10:37:47;98536.97;;;23.29;42.97
48792;BME280;34587;48.816;9.420;2023-05-09T10:40:13;98541.31;;;23.90;43.12
48792;BME280;34587;48.816;9.420;2023-05-09T10:42:43;98512.06;;;26.19;38.15
48792;BME280;34587;48.816;9.420;2023-05-09T10:45:10;98511.91;;;26.11;37.83
48792;BME280;34587;48.816;9.420;2023-05-09T10:47:37;98513.97;;;24.47;41.25
48792;BME280;34587;48.816;9.420;2023-05-09T10:50:06;98510.09;;;22.88;44.83
48792;BME280;34587;48.816;9.420;2023-05-09T10:52:32;98501.06;;;23.27;44.89
48792;BME280;34587;48.816;9.420;2023-05-09T10:55:02;98493.09;;;24.08;44.01
48792;BME280;34587;48.816;9.420;2023-05-09T10:57:29;98485.06;;;25.09;41.68
48792;BME280;34587;48.816;9.420;2023-05-09T10:59:55;98476.25;;;27.04;37.75
48792;BME280;34587;48.816;9.420;2023-05-09T11:02:21;98472.31;;;26.88;38.56
48792;BME280;34587;48.816;9.420;2023-05-09T11:05:16;98486.69;;;24.78;40.52
48792;BME280;34587;48.816;9.420;2023-05-09T11:07:42;98477.38;;;23.60;43.51
48792;BME280;34587;48.816;9.420;2023-05-09T11:10:08;98462.28;;;24.07;43.82
48792;BME280;34587;48.816;9.420;2023-05-09T11:12:51;98465.06;;;24.28;43.36
48792;BME280;34587;48.816;9.420;2023-05-09T11:15:17;98457.72;;;25.93;39.14
48792;BME280;34587;48.816;9.420;2023-05-09T11:17:42;98447.31;;;25.06;40.13
48792;BME280;34587;48.816;9.420;2023-05-09T11:20:08;98459.38;;;23.66;43.34
48792;BME280;34587;48.816;9.420;2023-05-09T11:22:39;98452.44;;;23.41;44.53
48792;BME280;34587;48.816;9.420;2023-05-09T11:25:10;98447.63;;;23.46;44.63
48792;BME280;34587;48.816;9.420;2023-05-09T11:30:06;98441.22;;;23.95;43.75
48792;BME280;34587;48.816;9.420;2023-05-09T11:32:34;98435.13;;;23.48;45.46
48792;BME280;34587;48.816;9.420;2023-05-09T11:35:10;98432.78;;;23.78;44.39
48792;BME280;34587;48.816;9.420;2023-05-09T11:40:16;98426.22;;;23.49;44.69
48792;BME280;34587;48.816;9.420;2023-05-09T11:42:43;98416.88;;;23.56;44.00
48792;BME280;34587;48.816;9.420;2023-05-09T11:45:13;98412.19;;;23.59;44.46
48792;BME280;34587;48.816;9.420;2023-05-09T11:47:39;98414.53;;;23.75;43.59
48792;BME280;34587;48.816;9.420;2023-05-09T11:50:09;98396.06;;;24.30;43.31
48792;BME280;34587;48.816;9.420;2023-05-09T11:52:35;98403.69;;;24.99;42.07
48792;BME280;34587;48.816;9.420;2023-05-09T11:55:01;98390.72;;;26.60;38.53
48792;BME280;34587;48.816;9.420;2023-05-09T11:57:27;98384.63;;;26.38;39.23
48792;BME280;34587;48.816;9.420;2023-05-09T11:59:53;98384.13;;;24.58;42.51
48792;BME280;34587;48.816;9.420;2023-05-09T12:02:18;98386.09;;;24.33;43.83
48792;BME280;34587;48.816;9.420;2023-05-09T12:04:46;98373.94;;;24.42;43.15
48792;BME280;34587;48.816;9.420;2023-05-09T12:07:12;98369.41;;;25.18;42.09
48792;BME280;34587;48.816;9.420;2023-05-09T12:09:37;98378.03;;;24.78;42.03
48792;BME280;34587;48.816;9.420;2023-05-09T12:12:11;98375.44;;;24.56;42.85
48792;BME280;34587;48.816;9.420;2023-05-09T12:14:37;98369.84;;;24.70;43.45
48792;BME280;34587;48.816;9.420;2023-05-09T12:17:03;98365.06;;;24.64;42.51
48792;BME280;34587;48.816;9.420;2023-05-09T12:19:29;98359.97;;;24.72;42.84
48792;BME280;34587;48.816;9.420;2023-05-09T12:21:58;98358.78;;;24.10;42.88
48792;BME280;34587;48.816;9.420;2023-05-09T12:24:25;98354.91;;;24.48;42.77
48792;BME280;34587;48.816;9.420;2023-05-09T12:26:51;98340.41;;;24.09;43.98
48792;BME280;34587;48.816;9.420;2023-05-09T12:29:17;98339.63;;;24.41;43.22
48792;BME280;34587;48.816;9.420;2023-05-09T12:31:42;98336.38;;;24.26;43.52
48792;BME280;34587;48.816;9.420;2023-05-09T12:34:08;98330.97;;;24.16;42.94
48792;BME280;34587;48.816;9.420;2023-05-09T12:36:35;98328.75;;;23.89;44.71
48792;BME280;34587;48.816;9.420;2023-05-09T12:39:01;98323.44;;;24.00;44.03
48792;BME280;34587;48.816;9.420;2023-05-09T12:41:27;98320.47;;;24.48;42.74
48792;BME280;34587;48.816;9.420;2023-05-09T12:43:53;98313.03;;;23.65;43.94
48792;BME280;34587;48.816;9.420;2023-05-09T12:46:22;98313.44;;;24.15;43.95
48792;BME280;34587;48.816;9.420;2023-05-09T12:48:47;98309.78;;;24.27;43.19
48792;BME280;34587;48.816;9.420;2023-05-09T12:51:17;98301.16;;;24.03;43.34
48792;BME280;34587;48.816;9.420;2023-05-09T12:53:44;98295.25;;;24.10;44.08
48792;BME280;34587;48.816;9.420;2023-05-09T12:56:15;98299.34;;;24.58;43.64
48792;BME280;34587;48.816;9.420;2023-05-09T12:58:48;98285.00;;;25.23;42.61
48792;BME280;34587;48.816;9.420;2023-05-09T13:01:15;98281.06;;;25.18;42.25
48792;BME280;34587;48.816;9.420;2023-05-09T13:03:40;98278.59;;;24.63;42.01
48792;BME280;34587;48.816;9.420;2023-05-09T13:06:11;98285.56;;;24.43;43.04
48792;BME280;34587;48.816;9.420;2023-05-09T13:08:37;98280.31;;;23.55;44.06
48792;BME280;34587;48.816;9.420;2023-05-09T13:11:03;98275.72;;;23.57;43.71
48792;BME280;34587;48.816;9.420;2023-05-09T13:13:29;98276.78;;;24.43;43.06
48792;BME280;34587;48.816;9.420;2023-05-09T13:15:55;98263.88;;;24.91;41.90
48792;BME280;34587;48.816;9.420;2023-05-09T13:18:21;98250.53;;;25.54;39.79
48792;BME280;34587;48.816;9.420;2023-05-09T13:20:48;98246.75;;;26.16;39.51
48792;BME280;34587;48.816;9.420;2023-05-09T13:23:13;98246.97;;;25.13;41.20
48792;BME280;34587;48.816;9.420;2023-05-09T13:25:39;98240.00;;;25.12;40.81
48792;BME280;34587;48.816;9.420;2023-05-09T13:28:04;98230.28;;;25.62;41.22
48792;BME280;34587;48.816;9.420;2023-05-09T13:30:29;98226.44;;;24.84;40.92
48792;BME280;34587;48.816;9.420;2023-05-09T13:32:55;98224.72;;;24.53;42.58
48792;BME280;34587;48.816;9.420;2023-05-09T13:35:21;98222.00;;;24.64;41.87
48792;BME280;34587;48.816;9.420;2023-05-09T13:37:46;98219.34;;;24.64;41.55
48792;BME280;34587;48.816;9.420;2023-05-09T13:40:12;98209.63;;;24.32;42.26
48792;BME280;34587;48.816;9.420;2023-05-09T13:42:37;98210.94;;;24.59;41.95
48792;BME280;34587;48.816;9.420;2023-05-09T13:45:03;98208.09;;;24.51;41.69
48792;BME280;34587;48.816;9.420;2023-05-09T13:47:28;98202.91;;;24.70;42.00
48792;BME280;34587;48.816;9.420;2023-05-09T13:49:53;98195.59;;;24.83;40.58
48792;BME280;34587;48.816;9.420;2023-05-09T13:52:19;98187.47;;;24.75;41.30
48792;BME280;34587;48.816;9.420;2023-05-09T13:54:45;98188.47;;;25.35;40.39
48792;BME280;34587;48.816;9.420;2023-05-09T13:57:11;98185.44;;;24.88;40.75
48792;BME280;34587;48.816;9.420;2023-05-09T13:59:36;98185.06;;;24.30;41.97
48792;BME280;34587;48.816;9.420;2023-05-09T14:02:02;98184.53;;;24.48;41.81
48792;BME280;34587;48.816;9.420;2023-05-09T14:04:29;98176.00;;;24.44;42.38
48792;BME280;34587;48.816;9.420;2023-05-09T14:06:58;98173.22;;;24.46;42.81
48792;BME280;34587;48.816;9.420;2023-05-09T14:09:24;98173.03;;;24.26;43.05
48792;BME280;34587;48.816;9.420;2023-05-09T14:11:51;98164.34;;;23.82;43.58
48792;BME280;34587;48.816;9.420;2023-05-09T14:14:20;98156.00;;;24.19;42.94
48792;BME280;34587;48.816;9.420;2023-05-09T14:16:46;98153.47;;;23.97;42.43
48792;BME280;34587;48.816;9.420;2023-05-09T14:19:12;98142.44;;;24.33;43.34
48792;BME280;34587;48.816;9.420;2023-05-09T14:21:39;98144.13;;;24.34;42.09
48792;BME280;34587;48.816;9.420;2023-05-09T14:24:05;98142.94;;;24.69;41.47
48792;BME280;34587;48.816;9.420;2023-05-09T14:26:31;98141.28;;;24.68;41.47
48792;BME280;34587;48.816;9.420;2023-05-09T14:28:57;98133.75;;;25.04;41.41
48792;BME280;34587;48.816;9.420;2023-05-09T14:31:22;98136.22;;;24.65;41.67
48792;BME280;34587;48.816;9.420;2023-05-09T14:33:47;98127.03;;;24.39;42.17
48792;BME280;34587;48.816;9.420;2023-05-09T14:36:12;98124.00;;;24.43;42.60
48792;BME280;34587;48.816;9.420;2023-05-09T14:38:38;98122.16;;;24.02;41.94
48792;BME280;34587;48.816;9.420;2023-05-09T14:41:04;98123.34;;;24.09;42.25
48792;BME280;34587;48.816;9.420;2023-05-09T14:43:30;98113.91;;;24.16;41.99
48792;BME280;34587;48.816;9.420;2023-05-09T14:45:57;98119.31;;;23.94;42.64
48792;BME280;34587;48.816;9.420;2023-05-09T14:48:23;98113.41;;;23.58;43.72
48792;BME280;34587;48.816;9.420;2023-05-09T14:50:48;98110.25;;;23.75;43.58
48792;BME280;34587;48.816;9.420;2023-05-09T14:53:14;98116.84;;;23.38;43.68
48792;BME280;34587;48.816;9.420;2023-05-09T14:55:40;98124.56;;;22.84;45.61
48792;BME280;34587;48.816;9.420;2023-05-09T14:58:05;98130.53;;;22.30;46.92
48792;BME280;34587;48.816;9.420;2023-05-09T15:00:31;98138.63;;;21.20;52.02
48792;BME280;34587;48.816;9.420;2023-05-09T15:02:58;98141.25;;;19.93;58.74
48792;BME280;34587;48.816;9.420;2023-05-09T15:05:23;98146.38;;;18.70;68.85
48792;BME280;34587;48.816;9.420;2023-05-09T15:07:49;98167.72;;;17.76;79.53
48792;BME280;34587;48.816;9.420;2023-05-09T15:10:14;98176.16;;;17.17;85.46
48792;BME280;34587;48.816;9.420;2023-05-09T15:12:39;98178.16;;;16.96;88.14
48792;BME280;34587;48.816;9.420;2023-05-09T15:15:16;98181.38;;;16.51;92.50
48792;BME280;34587;48.816;9.420;2023-05-09T15:17:43;98168.97;;;16.22;96.27
48792;BME280;34587;48.816;9.420;2023-05-09T15:20:10;98146.50;;;16.00;100.00
48792;BME280;34587;48.816;9.420;2023-05-09T15:22:35;98146.19;;;15.89;100.00
48792;BME280;34587;48.816;9.420;2023-05-09T15:25:01;98139.28;;;15.88;100.00
48792;BME280;34587;48.816;9.420;2023-05-09T15:27:27;98141.13;;;16.21;100.00
48792;BME280;34587;48.816;9.420;2023-05-09T15:29:53;98141.19;;;16.36;100.00
48792;BME280;34587;48.816;9.420;2023-05-09T15:32:19;98135.25;;;16.50;100.00
48792;BME280;34587;48.816;9.420;2023-05-09T15:34:44;98122.88;;;16.69;100.00
48792;BME280;34587;48.816;9.420;2023-05-09T15:37:10;98125.78;;;16.81;100.00
48792;BME280;34587;48.816;9.420;2023-05-09T15:39:35;98118.53;;;16.86;100.00
48792;BME280;34587;48.816;9.420;2023-05-09T15:42:01;98114.00;;;17.05;100.00
48792;BME280;34587;48.816;9.420;2023-05-09T15:44:29;98126.16;;;17.06;100.00
48792;BME280;34587;48.816;9.420;2023-05-09T15:46:55;98120.75;;;17.25;100.00
48792;BME280;34587;48.816;9.420;2023-05-09T15:49:22;98111.56;;;17.02;98.67
48792;BME280;34587;48.816;9.420;2023-05-09T15:51:47;98110.88;;;16.83;99.19
48792;BME280;34587;48.816;9.420;2023-05-09T15:54:13;98107.47;;;16.81;98.44
48792;BME280;34587;48.816;9.420;2023-05-09T15:56:38;98113.81;;;16.77;100.00
48792;BME280;34587;48.816;9.420;2023-05-09T15:59:03;98101.84;;;17.04;100.00
48792;BME280;34587;48.816;9.420;2023-05-09T16:01:28;98098.72;;;17.13;99.35
48792;BME280;34587;48.816;9.420;2023-05-09T16:03:54;98094.91;;;17.19;99.29
48792;BME280;34587;48.816;9.420;2023-05-09T16:06:19;98091.09;;;17.25;99.20
48792;BME280;34587;48.816;9.420;2023-05-09T16:08:45;98094.81;;;17.20;99.56
48792;BME280;34587;48.816;9.420;2023-05-09T16:11:11;98088.13;;;17.31;98.73
48792;BME280;34587;48.816;9.420;2023-05-09T16:13:37;98077.28;;;16.58;96.49
48792;BME280;34587;48.816;9.420;2023-05-09T16:16:02;98079.53;;;16.48;97.92
48792;BME280;34587;48.816;9.420;2023-05-09T16:18:28;98076.78;;;16.67;100.00
48792;BME280;34587;48.816;9.420;2023-05-09T16:20:53;98073.91;;;16.73;98.48
48792;BME280;34587;48.816;9.420;2023-05-09T16:23:19;98077.69;;;16.83;100.00
48792;BME280;34587;48.816;9.420;2023-05-09T16:25:45;98071.94;;;16.77;100.00
48792;BME280;34587;48.816;9.420;2023-05-09T16:28:10;98081.75;;;16.73;100.00
48792;BME280;34587;48.816;9.420;2023-05-09T16:33:03;98061.16;;;16.83;99.48
48792;BME280;34587;48.816;9.420;2023-05-09T16:35:29;98057.03;;;16.79;92.71
48792;BME280;34587;48.816;9.420;2023-05-09T16:37:54;98050.59;;;16.84;92.47
48792;BME280;34587;48.816;9.420;2023-05-09T16:40:19;98050.00;;;16.79;91.04
48792;BME280;34587;48.816;9.420;2023-05-09T16:42:45;98046.09;;;16.70;94.46
48792;BME280;34587;48.816;9.420;2023-05-09T16:45:10;98037.00;;;16.78;93.03
48792;BME280;34587;48.816;9.420;2023-05-09T16:47:36;98035.59;;;16.88;93.81
48792;BME280;34587;48.816;9.420;2023-05-09T16:50:01;98033.63;;;16.91;89.33
48792;BME280;34587;48.816;9.420;2023-05-09T16:52:26;98032.94;;;16.72;90.76
48792;BME280;34587;48.816;9.420;2023-05-09T16:54:52;98038.13;;;16.74;89.35
48792;BME280;34587;48.816;9.420;2023-05-09T16:57:18;98038.63;;;16.47;91.32
48792;BME280;34587;48.816;9.420;2023-05-09T16:59:44;98035.91;;;16.33;91.42
48792;BME280;34587;48.816;9.420;2023-05-09T17:02:10;98038.41;;;16.18;92.89
48792;BME280;34587;48.816;9.420;2023-05-09T17:04:35;98050.44;;;16.38;92.88
48792;BME280;34587;48.816;9.420;2023-05-09T17:07:01;98058.13;;;16.57;95.72
48792;BME280;34587;48.816;9.420;2023-05-09T17:09:26;98053.63;;;16.28;100.00
48792;BME280;34587;48.816;9.420;2023-05-09T17:11:51;98049.25;;;15.78;100.00
48792;BME280;34587;48.816;9.420;2023-05-09T17:14:16;98043.69;;;15.49;100.00
48792;BME280;34587;48.816;9.420;2023-05-09T17:16:42;98045.69;;;15.44;100.00